Time;durP1;ratioP1;P1;durP2;ratioP2;P2;SDS_P1;SDS_P2;PMS_P1;PMS_P2;Temp;Humidity;BMP_temperature;BMP_pressure;BME280_temperature;BME280_humidity;BME280_pressure;Samples;Min_cycle;Max_cycle;Signal;HPM_P1;HPM_P2
2023/07/08 00:00:55;;;;;;;6.80;5.32;;;;;;;23.05;55.15;96742.94;5041961;28;20548;-63
2023/07/08 00:03:21;;;;;;;6.30;4.25;;;;;;;23.10;55.64;96741.25;5041575;28;20691;-63
2023/07/08 00:05:56;;;;;;;5.85;4.80;;;;;;;23.13;56.06;96708.41;5042549;28;20587;-63
2023/07/08 00:08:23;;;;;;;7.95;5.07;;;;;;;23.15;55.35;96689.34;5042532;28;20287;-63
2023/07/08 00:10:51;;;;;;;7.53;5.15;;;;;;;23.18;55.99;96664.59;5043068;28;20230;-62
2023/07/08 00:13:18;;;;;;;6.13;5.00;;;;;;;23.15;61.36;96649.69;5042145;28;20211;-63
2023/07/08 00:15:45;;;;;;;8.27;5.80;;;;;;;23.03;72.61;96643.34;5041290;28;20519;-64
2023/07/08 00:18:13;;;;;;;7.53;5.57;;;;;;;22.90;75.27;96661.53;5041919;28;20223;-61
2023/07/08 00:20:41;;;;;;;9.15;6.18;;;;;;;22.69;75.80;96666.25;5042355;28;20231;-63
2023/07/08 00:23:09;;;;;;;7.93;5.85;;;;;;;22.55;75.42;96670.03;5041584;28;20242;-62
2023/07/08 00:25:36;;;;;;;8.50;6.00;;;;;;;22.44;75.92;96662.66;5042015;28;20196;-62
2023/07/08 00:28:10;;;;;;;8.35;5.88;;;;;;;22.29;79.91;96656.72;5041465;28;20233;-64
2023/07/08 00:30:36;;;;;;;7.43;6.18;;;;;;;22.13;86.91;96659.91;5041692;28;20227;-62
2023/07/08 00:33:03;;;;;;;8.30;6.40;;;;;;;21.76;89.25;96675.78;5041857;28;20215;-62
2023/07/08 00:35:31;;;;;;;8.85;7.18;;;;;;;21.53;92.29;96690.75;5041903;28;20265;-63
2023/07/08 00:38:01;;;;;;;12.05;6.68;;;;;;;21.44;94.31;96690.13;5040928;28;20231;-62
2023/07/08 00:40:28;;;;;;;8.77;6.70;;;;;;;21.32;99.03;96699.91;5041422;28;20203;-62
2023/07/08 00:42:55;;;;;;;10.10;6.47;;;;;;;21.05;100.00;96692.81;5040260;28;20529;-62
2023/07/08 00:45:32;;;;;;;8.68;6.97;;;;;;;20.96;100.00;96704.84;5042358;28;20218;-62
2023/07/08 00:48:03;;;;;;;9.00;6.00;;;;;;;20.91;98.66;96699.22;5041501;28;20214;-64
2023/07/08 00:50:29;;;;;;;7.20;5.38;;;;;;;20.93;98.94;96702.56;5042610;28;20202;-61
2023/07/08 00:53:17;;;;;;;6.70;5.07;;;;;;;20.91;100.00;96692.00;5040772;28;20203;-63
2023/07/08 00:55:44;;;;;;;7.78;4.97;;;;;;;20.83;100.00;96690.34;5040989;28;20556;-64
2023/07/08 00:58:10;;;;;;;6.10;5.32;;;;;;;20.80;100.00;96690.75;5040949;28;20251;-63
2023/07/08 01:00:39;;;;;;;7.82;5.10;;;;;;;20.74;100.00;96685.38;5042671;28;20207;-62
2023/07/08 01:03:06;;;;;;;6.68;5.43;;;;;;;20.59;100.00;96677.50;5043150;28;20236;-61
2023/07/08 01:05:34;;;;;;;9.93;5.72;;;;;;;20.44;100.00;96668.78;5042597;28;20211;-61
2023/07/08 01:08:03;;;;;;;9.20;5.22;;;;;;;20.44;100.00;96684.91;5041578;28;20234;-61
2023/07/08 01:10:34;;;;;;;8.88;5.10;;;;;;;20.26;100.00;96695.38;5041705;28;20253;-61
2023/07/08 01:13:02;;;;;;;9.10;5.75;;;;;;;20.07;100.00;96705.00;5041806;28;20262;-61
2023/07/08 01:15:32;;;;;;;9.63;5.38;;;;;;;19.91;100.00;96699.97;5041610;28;20203;-61
2023/07/08 01:18:00;;;;;;;6.15;4.82;;;;;;;19.92;100.00;96688.22;5041016;28;20246;-61
2023/07/08 01:20:27;;;;;;;7.50;5.25;;;;;;;19.83;100.00;96686.75;5042563;28;20207;-60
2023/07/08 01:22:55;;;;;;;6.50;4.63;;;;;;;19.74;100.00;96694.13;5041483;28;20211;-62
2023/07/08 01:25:21;;;;;;;6.60;4.57;;;;;;;19.67;100.00;96692.44;5041624;28;20215;-61
2023/07/08 01:27:50;;;;;;;7.28;4.00;;;;;;;19.60;100.00;96689.72;5041381;28;20191;-61
2023/07/08 01:30:17;;;;;;;5.07;4.40;;;;;;;19.50;100.00;96686.56;5041964;28;20208;-61
2023/07/08 01:32:47;;;;;;;5.55;3.95;;;;;;;19.43;100.00;96685.69;5040981;28;20534;-62
2023/07/08 01:35:16;;;;;;;6.15;4.65;;;;;;;19.45;100.00;96696.25;5042052;28;20223;-62
2023/07/08 01:37:45;;;;;;;6.38;4.35;;;;;;;19.37;100.00;96705.22;5041388;28;20223;-60
2023/07/08 01:40:25;;;;;;;6.18;3.90;;;;;;;19.38;100.00;96701.50;5041498;28;20207;-61
2023/07/08 01:42:52;;;;;;;6.70;4.15;;;;;;;19.21;100.00;96692.13;5040112;28;20562;-61
2023/07/08 01:45:21;;;;;;;7.13;4.32;;;;;;;19.18;100.00;96687.16;5041198;28;20216;-62
2023/07/08 01:47:50;;;;;;;6.47;4.07;;;;;;;19.11;100.00;96697.81;5041274;28;20521;-61
2023/07/08 01:50:17;;;;;;;5.78;4.47;;;;;;;18.93;100.00;96704.69;5045159;28;20204;-61
2023/07/08 01:52:44;;;;;;;5.13;4.18;;;;;;;18.98;100.00;96712.97;5044615;28;20203;-61
2023/07/08 01:55:10;;;;;;;5.82;4.28;;;;;;;19.02;100.00;96722.28;5045390;28;20208;-61
2023/07/08 01:57:38;;;;;;;5.18;4.00;;;;;;;19.00;100.00;96716.28;5045212;28;20216;-62
2023/07/08 02:00:06;;;;;;;5.05;4.13;;;;;;;18.97;100.00;96716.66;5044464;28;20548;-61
2023/07/08 02:02:33;;;;;;;9.13;4.07;;;;;;;18.96;100.00;96709.63;5046057;28;20354;-61
2023/07/08 02:04:59;;;;;;;5.43;3.60;;;;;;;18.87;100.00;96717.00;5048359;28;20207;-61
2023/07/08 02:07:26;;;;;;;4.97;3.97;;;;;;;18.88;100.00;96714.13;5046477;28;20200;-61
2023/07/08 02:09:52;;;;;;;6.15;3.65;;;;;;;18.88;100.00;96711.44;5046263;28;20354;-61
2023/07/08 02:12:19;;;;;;;4.25;3.85;;;;;;;18.87;100.00;96712.47;5046888;28;20233;-61
2023/07/08 02:14:46;;;;;;;5.20;4.20;;;;;;;18.85;100.00;96708.31;5045066;28;20596;-60
2023/07/08 02:17:15;;;;;;;5.43;4.22;;;;;;;18.87;100.00;96701.75;5044230;28;20289;-60
2023/07/08 02:19:42;;;;;;;4.85;3.90;;;;;;;18.88;100.00;96689.19;5044461;28;20203;-61
2023/07/08 02:22:08;;;;;;;5.32;4.20;;;;;;;18.83;100.00;96684.41;5044076;28;20204;-61
2023/07/08 02:24:35;;;;;;;5.03;3.83;;;;;;;18.85;100.00;96673.47;5044299;28;20204;-62
2023/07/08 02:27:01;;;;;;;8.52;4.43;;;;;;;18.86;100.00;96669.78;5043771;28;20518;-61
2023/07/08 02:29:28;;;;;;;5.88;4.15;;;;;;;18.91;100.00;96675.41;5044155;28;20203;-60
2023/07/08 02:31:56;;;;;;;5.68;4.43;;;;;;;18.86;100.00;96678.66;5045102;28;20290;-61
2023/07/08 02:34:22;;;;;;;4.78;3.67;;;;;;;18.85;100.00;96681.53;5043957;28;20200;-61
2023/07/08 02:36:49;;;;;;;5.13;4.15;;;;;;;18.89;100.00;96685.47;5049289;28;20200;-61
2023/07/08 02:39:15;;;;;;;6.28;4.60;;;;;;;18.92;100.00;96703.03;5056059;28;20206;-62
2023/07/08 02:41:42;;;;;;;6.38;4.57;;;;;;;18.80;100.00;96722.31;5054299;28;20199;-61
2023/07/08 02:44:08;;;;;;;7.70;4.00;;;;;;;18.89;100.00;96734.53;5043255;28;20218;-61
2023/07/08 02:46:34;;;;;;;9.30;4.65;;;;;;;18.90;100.00;96743.41;5044017;28;20266;-62
2023/07/08 02:49:02;;;;;;;6.70;4.68;;;;;;;18.94;100.00;96750.06;5043554;28;20261;-61
2023/07/08 02:51:29;;;;;;;6.60;4.53;;;;;;;18.99;100.00;96758.31;5044471;28;20211;-61
2023/07/08 02:53:55;;;;;;;6.07;5.10;;;;;;;19.02;100.00;96779.41;5044087;28;20213;-62
2023/07/08 02:56:22;;;;;;;8.38;5.03;;;;;;;19.05;100.00;96789.75;5050025;28;20654;-62
2023/07/08 02:58:49;;;;;;;7.43;4.78;;;;;;;19.06;100.00;96769.13;5051499;28;20234;-61
2023/07/08 03:01:17;;;;;;;5.68;4.50;;;;;;;19.10;100.00;96779.25;5048091;28;20321;-62
2023/07/08 03:03:44;;;;;;;6.80;4.47;;;;;;;19.17;100.00;96806.97;5045171;28;20230;-61
2023/07/08 03:06:12;;;;;;;6.22;4.53;;;;;;;19.16;100.00;96824.09;5044949;28;20628;-62
2023/07/08 03:08:39;;;;;;;7.07;4.38;;;;;;;19.20;100.00;96830.69;5043593;28;20199;-62
2023/07/08 03:11:09;;;;;;;5.95;4.53;;;;;;;19.26;100.00;96829.13;5042389;28;20203;-61
2023/07/08 03:13:36;;;;;;;3.92;3.63;;;;;;;19.29;100.00;96810.78;5043697;28;20572;-62
2023/07/08 03:16:08;;;;;;;8.10;4.00;;;;;;;19.35;100.00;96817.22;5043764;28;20203;-62
2023/07/08 03:18:38;;;;;;;4.85;3.90;;;;;;;19.43;100.00;96818.97;5043782;28;20243;-63
2023/07/08 03:21:05;;;;;;;4.85;3.70;;;;;;;19.50;100.00;96825.22;5043851;28;20199;-62
2023/07/08 03:23:33;;;;;;;4.45;3.78;;;;;;;19.51;100.00;96838.44;5042673;28;20662;-62
2023/07/08 03:25:59;;;;;;;6.28;4.30;;;;;;;19.51;100.00;96848.34;5043305;28;20683;-62
2023/07/08 03:28:26;;;;;;;4.07;3.67;;;;;;;19.47;100.00;96841.69;5042155;28;20200;-63
2023/07/08 03:30:53;;;;;;;4.90;3.50;;;;;;;19.41;100.00;96847.81;5042487;28;20604;-62
2023/07/08 03:33:20;;;;;;;5.55;4.20;;;;;;;19.39;100.00;96850.69;5042657;28;20202;-62
2023/07/08 03:35:47;;;;;;;6.32;3.95;;;;;;;19.37;100.00;96863.47;5043525;28;20218;-63
2023/07/08 03:38:13;;;;;;;4.15;3.75;;;;;;;19.32;100.00;96866.72;5042361;28;21012;-63
2023/07/08 03:40:41;;;;;;;6.07;4.13;;;;;;;19.37;100.00;96868.81;5042988;28;20199;-61
2023/07/08 03:43:07;;;;;;;4.68;3.40;;;;;;;19.31;100.00;96869.56;5042217;28;20211;-63
2023/07/08 03:45:34;;;;;;;3.85;3.42;;;;;;;19.36;100.00;96877.88;5042955;28;20507;-63
2023/07/08 03:48:00;;;;;;;4.88;3.60;;;;;;;19.48;100.00;96886.28;5042287;28;20325;-63
2023/07/08 03:50:27;;;;;;;4.15;3.42;;;;;;;19.55;100.00;96885.34;5042802;28;20212;-62
2023/07/08 03:52:55;;;;;;;4.28;3.10;;;;;;;19.65;100.00;96890.34;5042830;28;20220;-62
2023/07/08 03:55:22;;;;;;;5.28;3.63;;;;;;;19.71;100.00;96886.91;5042891;28;20212;-62
2023/07/08 03:57:50;;;;;;;4.25;3.47;;;;;;;19.73;100.00;96874.13;5041445;28;20230;-61
2023/07/08 04:00:17;;;;;;;4.88;3.28;;;;;;;19.68;100.00;96868.50;5042537;28;20199;-62
2023/07/08 04:02:45;;;;;;;3.38;3.08;;;;;;;19.69;100.00;96846.03;5041842;28;20250;-61
2023/07/08 04:05:14;;;;;;;4.18;2.80;;;;;;;19.59;100.00;96816.81;5042245;28;20536;-62
2023/07/08 04:07:41;;;;;;;5.63;2.83;;;;;;;19.55;100.00;96801.34;5042233;28;20224;-61
2023/07/08 04:10:08;;;;;;;4.45;2.85;;;;;;;19.52;100.00;96824.00;5041685;28;20290;-61
2023/07/08 04:12:35;;;;;;;5.40;3.28;;;;;;;19.50;100.00;96825.22;5041864;28;20204;-62
2023/07/08 04:15:03;;;;;;;3.67;2.88;;;;;;;19.35;100.00;96823.41;5041748;28;20237;-62
2023/07/08 04:17:30;;;;;;;4.68;3.13;;;;;;;19.29;100.00;96824.19;5041606;28;20211;-61
2023/07/08 04:19:57;;;;;;;3.85;3.10;;;;;;;19.32;100.00;96831.03;5042009;28;20218;-61
2023/07/08 04:22:23;;;;;;;2.85;2.58;;;;;;;19.26;100.00;96823.75;5042823;28;20246;-63
2023/07/08 04:24:50;;;;;;;3.00;2.35;;;;;;;19.22;100.00;96833.19;5042250;28;20222;-61
2023/07/08 04:27:17;;;;;;;2.78;2.58;;;;;;;19.24;100.00;96840.03;5040784;28;20633;-61
2023/07/08 04:29:45;;;;;;;2.90;2.50;;;;;;;19.33;100.00;96843.41;5041189;28;20223;-62
2023/07/08 04:32:13;;;;;;;4.63;2.70;;;;;;;19.35;100.00;96865.50;5041752;28;20257;-63
2023/07/08 04:34:40;;;;;;;3.42;2.58;;;;;;;19.34;100.00;96888.78;5042861;28;20207;-63
2023/07/08 04:37:06;;;;;;;2.45;2.22;;;;;;;19.39;100.00;96893.59;5042236;28;20215;-61
2023/07/08 04:39:33;;;;;;;4.88;2.70;;;;;;;19.39;100.00;96893.59;5042319;28;20556;-62
2023/07/08 04:41:59;;;;;;;3.15;2.63;;;;;;;19.33;100.00;96891.69;5041175;28;20212;-61
2023/07/08 04:44:27;;;;;;;4.25;2.50;;;;;;;19.31;100.00;96896.38;5040665;28;20203;-61
2023/07/08 04:46:55;;;;;;;3.72;2.58;;;;;;;19.26;100.00;96898.84;5041617;28;20195;-63
2023/07/08 04:49:31;;;;;;;3.13;2.30;;;;;;;19.19;100.00;96911.34;5041879;28;20203;-62
2023/07/08 04:51:58;;;;;;;4.03;2.40;;;;;;;19.18;100.00;96928.44;5042304;28;20260;-60
2023/07/08 04:54:24;;;;;;;3.67;2.45;;;;;;;19.11;100.00;96940.94;5042328;28;20217;-61
2023/07/08 04:56:52;;;;;;;2.70;2.50;;;;;;;19.09;100.00;96932.28;5041737;28;20207;-62
2023/07/08 04:59:21;;;;;;;3.17;1.98;;;;;;;19.08;100.00;96930.59;5041370;28;20227;-62
2023/07/08 05:01:48;;;;;;;3.28;2.67;;;;;;;19.06;100.00;96935.34;5041777;28;20276;-60
2023/07/08 05:04:16;;;;;;;2.17;1.73;;;;;;;19.08;100.00;96934.13;5040732;28;20231;-60
2023/07/08 05:06:44;;;;;;;2.00;1.90;;;;;;;19.03;100.00;96933.84;5042253;28;20210;-61
2023/07/08 05:09:11;;;;;;;2.05;1.85;;;;;;;19.03;100.00;96931.16;5043946;28;20199;-60
2023/07/08 05:11:37;;;;;;;4.00;1.80;;;;;;;18.94;100.00;96944.88;5042042;28;20199;-61
2023/07/08 05:14:07;;;;;;;2.15;1.90;;;;;;;18.89;100.00;96951.63;5040877;28;20195;-62
2023/07/08 05:16:35;;;;;;;4.90;2.33;;;;;;;18.78;100.00;96944.03;5041329;28;20512;-60
2023/07/08 05:19:01;;;;;;;2.15;1.95;;;;;;;18.74;100.00;96958.81;5041145;28;20313;-61
2023/07/08 05:21:33;;;;;;;1.85;1.75;;;;;;;18.68;100.00;96956.91;5041681;28;20547;-61
2023/07/08 05:24:00;;;;;;;2.00;1.83;;;;;;;18.68;100.00;96954.22;5044625;28;20207;-61
2023/07/08 05:26:27;;;;;;;4.85;2.25;;;;;;;18.65;100.00;96956.44;5045472;28;20211;-60
2023/07/08 05:28:54;;;;;;;2.33;1.92;;;;;;;18.62;100.00;96963.00;5044196;28;20635;-61
2023/07/08 05:31:21;;;;;;;2.50;1.90;;;;;;;18.63;100.00;96972.72;5044887;28;20207;-60
2023/07/08 05:33:47;;;;;;;1.73;1.60;;;;;;;18.64;100.00;96982.41;5044329;28;20260;-61
2023/07/08 05:36:14;;;;;;;1.90;1.77;;;;;;;18.69;100.00;96993.41;5045167;28;20203;-61
2023/07/08 05:38:40;;;;;;;2.40;1.70;;;;;;;18.65;100.00;97005.50;5045443;28;20223;-60
2023/07/08 05:41:09;;;;;;;2.35;2.15;;;;;;;18.67;100.00;97011.50;5046055;28;20515;-60
2023/07/08 05:43:36;;;;;;;2.28;2.00;;;;;;;18.70;100.00;97011.16;5045027;28;20203;-60
2023/07/08 05:46:03;;;;;;;2.63;1.77;;;;;;;18.72;100.00;97014.47;5045197;28;20200;-60
2023/07/08 05:48:31;;;;;;;3.28;2.25;;;;;;;18.80;100.00;97019.75;5044696;28;20199;-59
2023/07/08 05:50:57;;;;;;;3.05;2.20;;;;;;;18.87;100.00;97020.66;5044645;28;20230;-61
2023/07/08 05:53:24;;;;;;;2.75;2.42;;;;;;;18.85;100.00;97025.34;5045258;28;20249;-60
2023/07/08 05:55:51;;;;;;;2.80;2.60;;;;;;;18.93;100.00;97032.47;5044681;28;20211;-60
2023/07/08 05:58:18;;;;;;;2.67;2.38;;;;;;;19.00;100.00;97021.84;5044088;28;20255;-62
2023/07/08 06:00:45;;;;;;;3.38;2.33;;;;;;;19.05;100.00;97028.31;5044363;28;20200;-61
2023/07/08 06:03:12;;;;;;;3.25;2.60;;;;;;;19.09;100.00;97034.97;5043921;28;20246;-60
2023/07/08 06:05:38;;;;;;;2.85;2.55;;;;;;;19.16;100.00;97037.72;5043981;28;20210;-60
2023/07/08 06:08:07;;;;;;;3.90;2.40;;;;;;;19.25;100.00;97047.31;5044690;28;20211;-60
2023/07/08 06:10:33;;;;;;;4.28;2.67;;;;;;;19.33;100.00;97049.91;5044737;28;20226;-59
2023/07/08 06:13:00;;;;;;;4.30;2.13;;;;;;;19.31;100.00;97052.78;5044574;28;20207;-61
2023/07/08 06:15:28;;;;;;;2.45;2.25;;;;;;;19.41;100.00;97060.56;5043838;28;20214;-61
2023/07/08 06:17:54;;;;;;;2.67;2.47;;;;;;;19.46;100.00;97058.13;5044491;28;20534;-61
2023/07/08 06:20:20;;;;;;;2.42;2.22;;;;;;;19.51;100.00;97053.06;5044058;28;20219;-61
2023/07/08 06:22:47;;;;;;;4.00;2.08;;;;;;;19.56;100.00;97049.78;5044462;28;20222;-61
2023/07/08 06:25:13;;;;;;;2.30;2.10;;;;;;;19.63;100.00;97054.22;5045217;28;20215;-60
2023/07/08 06:27:40;;;;;;;2.60;2.30;;;;;;;19.70;100.00;97047.06;5045687;28;20217;-62
2023/07/08 06:30:09;;;;;;;4.70;2.53;;;;;;;19.77;100.00;97057.88;5045371;28;20195;-61
2023/07/08 06:32:36;;;;;;;2.95;2.63;;;;;;;19.85;100.00;97060.44;5044323;28;20218;-61
2023/07/08 06:35:03;;;;;;;2.42;2.22;;;;;;;19.97;100.00;97063.47;5046930;28;20211;-61
2023/07/08 06:37:30;;;;;;;3.30;2.40;;;;;;;20.06;100.00;97064.97;5048940;28;20203;-62
2023/07/08 06:39:56;;;;;;;4.88;2.30;;;;;;;20.31;100.00;97060.91;5046253;28;20235;-60
2023/07/08 06:42:23;;;;;;;2.90;2.20;;;;;;;20.55;100.00;97057.78;5043163;28;20210;-61
2023/07/08 06:44:50;;;;;;;2.35;2.15;;;;;;;20.64;100.00;97059.31;5043590;28;20227;-60
2023/07/08 06:47:17;;;;;;;2.15;1.90;;;;;;;20.76;100.00;97060.44;5044320;28;20350;-60
2023/07/08 06:49:45;;;;;;;2.50;2.03;;;;;;;20.75;100.00;97064.16;5045307;28;20203;-61
2023/07/08 06:52:11;;;;;;;2.13;2.03;;;;;;;20.72;100.00;97069.09;5047161;28;20207;-61
2023/07/08 06:54:39;;;;;;;3.88;2.47;;;;;;;20.70;100.00;97068.44;5049904;28;20200;-60
2023/07/08 06:57:06;;;;;;;2.42;2.15;;;;;;;20.77;100.00;97067.47;5049239;28;20200;-60
2023/07/08 06:59:34;;;;;;;2.53;2.30;;;;;;;20.66;100.00;97059.94;5042575;28;20227;-61
2023/07/08 07:02:00;;;;;;;2.67;2.35;;;;;;;20.71;100.00;97062.06;5043518;28;20207;-61
2023/07/08 07:04:27;;;;;;;2.95;2.28;;;;;;;20.70;100.00;97061.22;5043207;28;20240;-61
2023/07/08 07:06:54;;;;;;;5.18;2.38;;;;;;;20.66;100.00;97059.94;5044330;28;20203;-60
2023/07/08 07:09:21;;;;;;;3.15;2.30;;;;;;;20.65;100.00;97057.47;5045640;28;20207;-60
2023/07/08 07:11:47;;;;;;;2.60;2.40;;;;;;;20.64;100.00;97055.81;5047072;28;20686;-60
2023/07/08 07:14:17;;;;;;;2.92;2.42;;;;;;;20.62;100.00;97052.47;5047899;28;20218;-61
2023/07/08 07:16:44;;;;;;;2.30;2.10;;;;;;;20.41;100.00;97034.53;5052443;28;20204;-60
2023/07/08 07:19:11;;;;;;;2.47;2.28;;;;;;;20.46;100.00;97032.09;5054525;28;20219;-61
2023/07/08 07:21:38;;;;;;;2.35;1.90;;;;;;;20.46;100.00;97040.16;5055830;28;20603;-61
2023/07/08 07:24:06;;;;;;;2.95;2.10;;;;;;;20.47;100.00;97028.41;5050231;28;20293;-61
2023/07/08 07:26:34;;;;;;;2.88;2.30;;;;;;;20.47;100.00;97028.41;5043631;28;20334;-63
2023/07/08 07:29:01;;;;;;;2.95;2.35;;;;;;;20.49;100.00;97028.19;5043036;28;20195;-61
2023/07/08 07:31:28;;;;;;;3.47;2.20;;;;;;;20.41;100.00;97018.41;5046414;28;20213;-61
2023/07/08 07:33:55;;;;;;;2.60;2.40;;;;;;;20.43;100.00;97020.91;5045247;28;20195;-60
2023/07/08 07:36:22;;;;;;;3.78;2.30;;;;;;;20.47;100.00;97016.81;5044362;28;20628;-60
2023/07/08 07:38:48;;;;;;;3.13;1.80;;;;;;;20.53;100.00;97011.50;5047030;28;20230;-63
2023/07/08 07:41:18;;;;;;;3.25;2.28;;;;;;;20.50;100.00;97016.44;5050729;28;20215;-61
2023/07/08 07:43:45;;;;;;;2.20;2.00;;;;;;;20.57;100.00;96993.13;5051677;28;20226;-61
2023/07/08 07:46:13;;;;;;;2.45;2.25;;;;;;;20.57;98.32;97011.94;5042443;28;20203;-62
2023/07/08 07:48:40;;;;;;;2.72;2.20;;;;;;;20.62;99.78;97004.94;5042231;28;20215;-60
2023/07/08 07:51:10;;;;;;;3.03;2.25;;;;;;;20.69;100.00;96997.72;5043932;28;20203;-63
2023/07/08 07:53:37;;;;;;;3.20;2.00;;;;;;;20.73;100.00;97001.69;5044084;28;20199;-61
2023/07/08 07:56:06;;;;;;;3.22;2.55;;;;;;;20.74;100.00;96997.16;5044154;28;20628;-61
2023/07/08 07:58:34;;;;;;;2.72;2.53;;;;;;;20.76;99.56;96995.13;5041910;28;20215;-63
2023/07/08 08:01:01;;;;;;;4.38;2.70;;;;;;;20.80;98.01;96997.19;5042325;28;20644;-60
2023/07/08 08:03:28;;;;;;;2.60;2.40;;;;;;;20.87;97.77;96991.03;5042296;28;20277;-60
2023/07/08 08:05:54;;;;;;;3.33;2.15;;;;;;;20.92;95.66;96978.66;5042300;28;20671;-61
2023/07/08 08:08:22;;;;;;;2.58;2.30;;;;;;;20.94;95.43;96981.16;5041663;28;20643;-61
2023/07/08 08:10:49;;;;;;;2.75;2.55;;;;;;;20.98;93.84;96972.47;5042880;28;20616;-61
2023/07/08 08:13:15;;;;;;;2.55;2.25;;;;;;;21.04;94.15;96973.53;5042231;28;20208;-61
2023/07/08 08:15:43;;;;;;;2.40;2.20;;;;;;;21.12;92.73;96973.38;5042364;28;20203;-61
2023/07/08 08:18:10;;;;;;;2.67;2.28;;;;;;;21.20;93.49;96970.50;5041671;28;20192;-61
2023/07/08 08:20:39;;;;;;;4.38;2.28;;;;;;;21.27;92.71;96961.44;5042689;28;20228;-60
2023/07/08 08:23:06;;;;;;;2.47;2.28;;;;;;;21.40;91.55;96957.94;5042100;28;20261;-60
2023/07/08 08:25:33;;;;;;;2.67;2.47;;;;;;;21.56;90.00;96954.91;5043169;28;20273;-60
2023/07/08 08:27:59;;;;;;;38.95;5.13;;;;;;;21.74;92.19;96949.75;5043694;28;20199;-60
2023/07/08 08:30:26;;;;;;;10.52;3.67;;;;;;;21.94;92.51;96952.47;5043582;28;20226;-60
2023/07/08 08:32:54;;;;;;;3.70;2.90;;;;;;;22.12;92.22;96944.63;5043189;28;20208;-59
2023/07/08 08:35:23;;;;;;;3.05;2.30;;;;;;;22.30;89.88;96946.69;5044080;28;20224;-61
2023/07/08 08:37:50;;;;;;;3.55;2.30;;;;;;;22.45;88.79;96933.81;5045022;28;20211;-61
2023/07/08 08:40:18;;;;;;;2.33;2.10;;;;;;;22.60;87.62;96938.97;5043769;28;20223;-60
2023/07/08 08:42:48;;;;;;;2.60;2.40;;;;;;;22.74;88.55;96932.53;5043000;28;20212;-60
2023/07/08 08:45:20;;;;;;;2.10;2.00;;;;;;;22.89;88.22;96932.25;5042774;28;20193;-61
2023/07/08 08:47:48;;;;;;;3.92;2.72;;;;;;;22.98;84.13;96921.03;5042962;28;20208;-61
2023/07/08 08:50:26;;;;;;;2.85;2.50;;;;;;;23.45;83.35;96927.88;5044598;28;20563;-61
2023/07/08 08:52:55;;;;;;;2.75;2.55;;;;;;;23.71;80.82;96930.41;5043711;28;20218;-60
2023/07/08 08:55:23;;;;;;;2.75;2.55;;;;;;;23.81;81.51;96923.72;5045433;28;20294;-60
2023/07/08 08:57:58;;;;;;;3.45;2.47;;;;;;;23.89;79.73;96928.81;5042971;28;20701;-59
2023/07/08 09:00:27;;;;;;;3.45;2.60;;;;;;;23.94;77.96;96926.28;5047955;28;20242;-61
2023/07/08 09:02:58;;;;;;;3.42;2.53;;;;;;;23.98;78.57;96935.63;5069081;28;20261;-61
2023/07/08 09:05:26;;;;;;;2.40;2.20;;;;;;;24.04;77.47;96926.63;5067351;28;20264;-62
2023/07/08 09:08:02;;;;;;;4.13;3.00;;;;;;;24.05;74.94;96926.41;5071071;28;20199;-61
2023/07/08 09:10:38;;;;;;;3.08;2.78;;;;;;;24.14;75.26;96926.97;5067523;28;20195;-60
2023/07/08 09:13:10;;;;;;;2.55;2.30;;;;;;;24.18;73.51;96944.41;5068362;28;20231;-61
2023/07/08 09:15:37;;;;;;;4.00;2.70;;;;;;;24.20;72.70;96937.72;5064292;28;20238;-61
2023/07/08 09:18:16;;;;;;;2.67;2.47;;;;;;;24.21;73.56;96939.41;5045693;28;20595;-60
2023/07/08 09:20:44;;;;;;;2.53;2.33;;;;;;;24.26;74.59;96933.34;5045672;28;20221;-60
2023/07/08 09:23:18;;;;;;;3.30;2.58;;;;;;;24.25;75.73;96937.91;5045688;28;20210;-61
2023/07/08 09:25:48;;;;;;;2.38;2.20;;;;;;;24.21;71.44;96946.66;5048703;28;20611;-62
2023/07/08 09:28:15;;;;;;;2.85;2.55;;;;;;;24.15;71.96;96939.44;5065200;28;20211;-62
2023/07/08 09:30:42;;;;;;;2.65;2.45;;;;;;;24.19;71.55;96948.78;5056658;28;20530;-60
2023/07/08 09:33:09;;;;;;;2.40;2.25;;;;;;;24.26;72.36;96936.03;5050011;28;20210;-61
2023/07/08 09:35:40;;;;;;;3.35;2.60;;;;;;;24.29;71.28;96941.00;5046067;28;20196;-61
2023/07/08 09:38:09;;;;;;;2.50;2.30;;;;;;;24.29;69.94;96932.88;5047150;28;20293;-60
2023/07/08 09:40:36;;;;;;;3.03;2.15;;;;;;;24.30;69.33;96939.13;5046127;28;20223;-60
2023/07/08 09:43:04;;;;;;;2.80;2.40;;;;;;;24.44;69.90;96929.84;5045995;28;20203;-60
2023/07/08 09:45:42;;;;;;;3.22;2.92;;;;;;;24.38;70.03;96926.13;5046484;28;20221;-60
2023/07/08 09:48:16;;;;;;;2.63;2.42;;;;;;;24.45;68.90;96932.28;5046492;28;20621;-60
2023/07/08 09:50:44;;;;;;;3.70;2.47;;;;;;;24.54;69.29;96930.97;5046395;28;20771;-60
2023/07/08 09:53:15;;;;;;;2.65;2.22;;;;;;;24.63;69.98;96929.63;5046947;28;20207;-59
2023/07/08 09:55:42;;;;;;;2.83;2.53;;;;;;;24.72;69.33;96933.69;5045928;28;20195;-60
2023/07/08 09:58:12;;;;;;;2.85;2.60;;;;;;;24.83;67.61;96934.00;5044912;28;20237;-58
2023/07/08 10:00:40;;;;;;;2.45;2.25;;;;;;;24.95;67.41;96932.22;5045930;28;20215;-59
2023/07/08 10:03:13;;;;;;;3.63;2.40;;;;;;;25.06;66.80;96924.16;5044522;28;20285;-58
2023/07/08 10:05:42;;;;;;;2.75;2.30;;;;;;;25.13;66.36;96927.63;5043585;28;20207;-59
2023/07/08 10:08:14;;;;;;;3.72;3.05;;;;;;;25.23;66.79;96932.47;5045785;28;20198;-60
2023/07/08 10:10:41;;;;;;;3.33;2.78;;;;;;;25.17;66.76;96933.41;5044785;28;20196;-59
2023/07/08 10:13:16;;;;;;;4.15;3.70;;;;;;;25.13;67.39;96933.03;5044971;28;20207;-61
2023/07/08 10:15:44;;;;;;;3.70;3.30;;;;;;;25.15;69.36;96933.63;5045474;28;20198;-60
2023/07/08 10:18:16;;;;;;;4.85;3.63;;;;;;;25.13;67.95;96940.31;5046049;28;20248;-60
2023/07/08 10:20:51;;;;;;;4.75;3.50;;;;;;;25.10;69.97;96929.94;5045586;28;20655;-60
2023/07/08 10:23:29;;;;;;;4.60;3.28;;;;;;;24.99;67.23;96930.69;5045703;28;20210;-60
2023/07/08 10:26:01;;;;;;;2.78;2.58;;;;;;;24.99;67.73;96938.81;5046409;28;20192;-61
2023/07/08 10:28:35;;;;;;;6.78;5.65;;;;;;;24.95;68.21;96937.63;5058479;28;20195;-62
2023/07/08 10:31:14;;;;;;;3.70;2.95;;;;;;;24.88;66.96;96936.88;5057450;28;20184;-60
2023/07/08 10:33:52;;;;;;;5.93;3.85;;;;;;;24.86;69.41;96939.81;5044722;28;20203;-61
2023/07/08 10:36:26;;;;;;;3.33;3.03;;;;;;;24.73;67.85;96946.16;5044980;28;20210;-61
2023/07/08 10:39:11;;;;;;;2.70;2.50;;;;;;;24.77;69.24;96958.19;5045153;28;20195;-60
2023/07/08 10:41:42;;;;;;;3.13;2.83;;;;;;;24.74;71.08;96946.97;5043667;28;20211;-61
2023/07/08 10:44:13;;;;;;;6.22;3.75;;;;;;;24.73;70.83;96956.97;5054104;28;20213;-62
2023/07/08 10:46:48;;;;;;;3.72;3.30;;;;;;;24.73;71.13;96950.72;5060770;28;20207;-62
2023/07/08 10:49:40;;;;;;;4.00;3.03;;;;;;;24.69;70.17;96944.13;5060048;28;20199;-59
2023/07/08 10:52:22;;;;;;;2.60;2.40;;;;;;;24.72;70.46;96939.09;5044241;28;20223;-59
2023/07/08 10:54:59;;;;;;;2.30;2.10;;;;;;;24.76;70.31;96945.69;5045127;28;20195;-58
2023/07/08 10:57:51;;;;;;;3.75;3.30;;;;;;;24.90;70.57;96946.44;5044271;28;20211;-60
2023/07/08 11:00:25;;;;;;;3.53;3.08;;;;;;;24.97;71.02;96952.59;5044105;28;20220;-60
2023/07/08 11:03:32;;;;;;;3.58;3.08;;;;;;;25.09;70.49;96955.34;5045032;28;20238;-59
2023/07/08 11:06:01;;;;;;;2.42;2.22;;;;;;;25.16;70.00;96946.09;5042361;28;20203;-59
2023/07/08 11:08:31;;;;;;;2.70;2.50;;;;;;;25.20;69.98;96944.59;5045829;28;20322;-59
2023/07/08 11:11:01;;;;;;;2.95;2.63;;;;;;;25.24;70.96;96937.69;5046920;28;20199;-60
2023/07/08 11:13:30;;;;;;;7.45;3.10;;;;;;;25.21;78.19;96938.13;5045504;28;20202;-60
2023/07/08 11:16:01;;;;;;;3.47;3.17;;;;;;;25.25;80.19;96930.38;5043594;28;20204;-60
2023/07/08 11:18:32;;;;;;;3.40;3.08;;;;;;;25.14;81.21;96940.09;5044925;28;20558;-60
2023/07/08 11:21:02;;;;;;;3.00;2.80;;;;;;;25.11;82.12;96943.25;5044687;28;20224;-59
2023/07/08 11:23:33;;;;;;;3.53;2.88;;;;;;;25.09;83.00;96939.13;5043988;28;20200;-61
2023/07/08 11:26:08;;;;;;;3.92;3.03;;;;;;;25.05;83.98;96935.19;5043998;28;20295;-60
2023/07/08 11:28:35;;;;;;;3.50;3.20;;;;;;;25.00;84.60;96935.06;5045261;28;20211;-59
2023/07/08 11:31:03;;;;;;;4.00;2.85;;;;;;;24.92;84.52;96932.66;5044390;28;20257;-60
2023/07/08 11:33:31;;;;;;;3.20;2.90;;;;;;;24.93;85.48;96934.31;5043672;28;20266;-60
2023/07/08 11:35:59;;;;;;;6.03;3.60;;;;;;;24.92;85.66;96935.38;5044814;28;20242;-59